Airfield :
LOGIN :

Register | Disclaimer

   EN    FR    IT 

 










Legend :    VFR   Marginal VFR   IFR   Intensive IFR   Very Intensive IFR
Visi :
Ceiling :
>= 8 km
>= 3000ft
5 to 8 km
1000 to 3000 ft
1500m to 5 km
500 to 1000 ft
800 to 1500m
200 to 500 ft
< 800m
< 200 ft
Symbols :   Thunderstorms  Fog  Heavy snow  Heavy precipitations  Wind > 20 kt
SIGMETs :     Misc.  Thunderstorms  Icing  Turbulence  Mountain Waves  Volcanic Ashes







- Airport Elevation : 184 ft
- IATA code : BRU


EBBR - Bruxelles

CURRENT METAR :
  • 200620Z 30006KT 2900 -RADZ BR FEW003 SCT004 BKN005 11/10 Q1008 NOSIG

EXPIRED METARs :
  • 200550Z 30005KT 2600 -RADZ BR FEW002 SCT004 BKN005 11/10 Q1008 TEMPO 0900 FG BKN002
  • 200520Z 31006KT 280V340 2400 -RADZ BR FEW002 SCT003 BKN004 11/10 Q1008 TEMPO 0900 FG BKN002
  • 200450Z 31005KT 1800 BR SCT002 BKN003 11/10 Q1008 TEMPO 0900 FG BKN002
  • 200420Z 32006KT 2000 -DZ SCT003 BKN004 11/10 Q1008 TEMPO BKN003
  • 200350Z 31006KT 2000 -DZ SCT002 BKN005 11/10 Q1008 NOSIG
  • 200320Z 31006KT 2500 -DZ SCT003 BKN004 11/10 Q1008 NOSIG

TAF TAF EBBR
Valid from the 20 at 06:00 until the 21 at 12:00 UTC


200510Z 2006/2112 31008KT 3500 BR BKN005
TEMPO 2006/2011 1500 -DZ BR BKN003
PROB40 2006/2008 0400 FG BKN001
TEMPO 2013/2019 6000 NSW BKN012
PROB40 2101/2109 2500 -DZ BR BKN003
BECMG 2110/2112 6000 NSW BKN008
No reported NOTAMs for that airfield.



MET'MAP, your aeronautical weather chart ! - Copyright ORBIFLY December 2007 - Disclaimer

ORBIFLY MET'MAP TEAM :

Programming & Development : Alexandra Zaïnal
Concept & Development : Baudouin d'Aumeries
Co-Development & Prog : Marc-Olivier Méhu
Technical & hardware support : Manuel Goepfert

Contact : metmap@orbifly.com




SOURCES & CREDITS :

   NOAA